Terminal Aerodrome Forecast
Issued by NWS Huntsville, AL

Home | Current Version | Previous Version | Text Only | Print | Product List | Glossary On
Versions: 1 2 3 4 5 6 7 8 9 10 11 12
000
FTUS44 KHUN 260520
TAFHSV
TAF
KHSV 260520Z 2606/2706 14005KT P6SM SCT100
     FM261600 24005KT P6SM SCT080
     FM262000 30010KT P6SM VCTS BKN050CB
     FM270000 36005KT P6SM BKN120=

USA.gov is the U.S. government's official web portal to all federal, state and local government web resources and services.